Rp Zug — HE7351 — position and weather

sailwx.info

Track history (hours):
 
Tides and Currents Weather Stations Pressure Air Temp Water Temp Dewpoint Dewpoint Depression Visibility Wind Speed Wind Dir Waves Ship Positions

Rp Zug

Last reported at 2014-Aug-01 09:23 UTC. Time now 2014-Aug-01 15:54 UTC.
Position N 51°51' E 005°51'.

Type: Tanker. MMSI: 269057351.

Date/timePositionNaut miles runAvg speedWind from/ knotsBaromVisibWave heightAir tempDewpointWater temp
2014-Aug-01 09:23N 51°51' E 005°51'5 6.6
2014-Aug-01 08:34N 51°53' E 005°43'7 6.6
2014-Aug-01 07:34N 51°54' E 005°33'6 6.0
2014-Aug-01 06:33N 51°50' E 005°24'5 5.0
2014-Aug-01 05:33N 51°49' E 005°17'6 6.3
2014-Aug-01 04:34N 51°49' E 005°06'7 7.1
2014-Aug-01 03:33N 51°50' E 004°55'8 7.5
2014-Aug-01 02:33N 51°49' E 004°43'3 2.8
2014-Aug-01 01:19N 51°47' E 004°38'0 0.0
2014-Aug-01 00:33N 51°47' E 004°38'0 0.0
2014-Jul-31 23:31N 51°47' E 004°38'0 0.0
2014-Jul-31 22:33N 51°47' E 004°38'0 0.0
2014-Jul-31 21:08N 51°47' E 004°38'0 0.0
2014-Jul-31 20:31N 51°47' E 004°38'0 0.0
2014-Jul-31 19:29N 51°47' E 004°38'0 0.0
2014-Jul-31 13:15N 51°47' E 004°38'2 2.3
2014-Jul-31 12:33N 51°48' E 004°36'7 7.0
2014-Jul-31 11:33N 51°50' E 004°25'7 7.5
2014-Jul-31 10:33N 51°53' E 004°14'7 7.0
2014-Jul-31 09:34N 51°57' E 004°05'2 1.8
2014-Jul-31 08:33N 51°58' E 004°02'0 0.0
2014-Jul-31 07:33N 51°58' E 004°02'0 0.0
2014-Jul-31 06:33N 51°58' E 004°02'0 0.0
2014-Jul-31 05:32N 51°58' E 004°02'0 0.0
2014-Jul-31 04:27N 51°58' E 004°02'0 0.0
2014-Jul-31 03:33N 51°58' E 004°02'0 0.0
2014-Jul-31 02:34N 51°58' E 004°02'0 0.0
2014-Jul-31 01:34N 51°58' E 004°02'0 0.0
2014-Jul-31 00:30N 51°58' E 004°02'1 1.4
2014-Jul-30 23:33N 51°58' E 004°04'10 9.6
2014-Jul-30 22:33N 51°52' E 004°17'1111.0
2014-Jul-30 21:33N 51°49' E 004°34'6 5.7
2014-Jul-30 20:33N 51°53' E 004°39'1110.8
2014-Jul-30 19:34N 51°57' E 004°56'8 7.7
2014-Jul-30 18:33N 52°01' E 005°07'3 2.9
2014-Jul-30 17:34N 52°04' E 005°06'9 8.8
2014-Jul-30 16:33N 52°12' E 004°60'9 9.0
2014-Jul-30 15:34N 52°21' E 004°60'8 8.4
2014-Jul-30 14:33N 52°25' E 004°48'2 2.2
2014-Jul-30 13:33N 52°25' E 004°45'0 0.0
2014-Jul-30 12:33N 52°25' E 004°45'0 0.0
2014-Jul-30 11:34N 52°25' E 004°45'0 0.0
2014-Jul-30 10:33N 52°25' E 004°45'0 0.0
2014-Jul-30 09:33N 52°25' E 004°45'0 0.0
2014-Jul-30 08:33N 52°25' E 004°45'0 0.0
2014-Jul-30 07:33N 52°25' E 004°45'0 0.0
2014-Jul-30 06:34N 52°25' E 004°45'0 0.0
2014-Jul-30 05:33N 52°25' E 004°45'0 0.0
2014-Jul-30 04:33N 52°25' E 004°45'0 0.0
2014-Jul-30 03:33N 52°25' E 004°45'0 0.0
2014-Jul-30 02:34N 52°25' E 004°45'0 0.0
2014-Jul-30 01:33N 52°25' E 004°45'0 0.0
2014-Jul-30 00:33N 52°25' E 004°45'0 0.3
2014-Jul-29 23:33N 52°25' E 004°45'0 0.0
2014-Jul-29 22:33N 52°25' E 004°45'0 0.0
2014-Jul-29 21:33N 52°25' E 004°45'0 0.0
2014-Jul-29 20:33N 52°25' E 004°45'0 0.0
2014-Jul-29 19:33N 52°25' E 004°45'0 0.0
2014-Jul-29 18:33N 52°25' E 004°45'0 0.0
2014-Jul-29 17:33N 52°25' E 004°45'0 0.0
2014-Jul-29 16:33N 52°25' E 004°45'0 0.0
2014-Jul-29 15:34N 52°25' E 004°45'0 0.0
2014-Jul-29 14:33N 52°25' E 004°45'0 0.0
2014-Jul-29 13:33N 52°25' E 004°45'0 0.0
2014-Jul-29 12:33N 52°25' E 004°45'0 0.0
2014-Jul-29 11:33N 52°25' E 004°45'0 0.0
2014-Jul-29 10:33N 52°25' E 004°45'0 0.0
2014-Jul-29 09:33N 52°25' E 004°45'0 0.0
2014-Jul-29 08:33N 52°25' E 004°45'0 0.0
2014-Jul-29 07:33N 52°25' E 004°45'1 0.8
2014-Jul-29 06:34N 52°26' E 004°46'1 1.4
2014-Jul-29 05:33N 52°25' E 004°48'0 0.0
2014-Jul-29 04:33N 52°25' E 004°48'0 0.0
2014-Jul-29 03:33N 52°25' E 004°48'0 0.0
2014-Jul-29 02:33N 52°25' E 004°48'0 0.0
2014-Jul-29 01:33N 52°25' E 004°48'0 0.0
2014-Jul-29 00:33N 52°25' E 004°48'0 0.0
2014-Jul-28 23:33N 52°25' E 004°48'0 0.0
2014-Jul-28 22:33N 52°25' E 004°48'0 0.0
2014-Jul-28 21:33N 52°25' E 004°48'0 0.0
2014-Jul-28 20:33N 52°25' E 004°48'0 0.0
2014-Jul-28 19:33N 52°25' E 004°48'0 0.0
2014-Jul-28 18:33N 52°25' E 004°48'1 0.6
2014-Jul-28 17:33N 52°25' E 004°49'6 5.7
2014-Jul-28 16:33N 52°23' E 004°57'8 8.0
2014-Jul-28 15:33N 52°15' E 005°01'8 8.0
2014-Jul-28 14:33N 52°07' E 005°04'6 6.4
2014-Jul-28 13:33N 52°01' E 005°07'6 5.7
2014-Jul-28 12:33N 51°58' E 004°59'7 6.6
2014-Jul-28 11:33N 51°55' E 004°48'7 7.2
2014-Jul-28 10:33N 51°53' E 004°37'8 8.2
2014-Jul-28 09:33N 51°45' E 004°38'4 0.8
2014-Jul-28 04:11N 51°42' E 004°34'0 0.0
2014-Jul-28 03:33N 51°42' E 004°34'0 0.0
2014-Jul-28 02:16N 51°42' E 004°34'0 0.0
2014-Jul-27 21:33N 51°42' E 004°34'2 0.2
2014-Jul-27 14:33N 51°42' E 004°36'6 5.7
2014-Jul-27 13:33N 51°48' E 004°37'6 6.3
2014-Jul-27 12:34N 51°54' E 004°41'1010.4
2014-Jul-27 11:34N 51°58' E 004°57'7 6.7
2014-Jul-27 10:33N 52°01' E 005°07'7 6.6
2014-Jul-27 09:32N 52°07' E 005°04'9 9.0
2014-Jul-27 08:32N 52°16' E 005°01'8 8.0
2014-Jul-27 07:33N 52°23' E 004°54'3 2.6
2014-Jul-27 06:34N 52°25' E 004°51'0 0.0
2014-Jul-27 05:34N 52°25' E 004°51'0 0.0
2014-Jul-27 04:34N 52°25' E 004°51'0 0.0
2014-Jul-27 03:34N 52°25' E 004°51'0 0.0
2014-Jul-27 02:34N 52°25' E 004°51'0 0.0
2014-Jul-27 01:34N 52°25' E 004°51'0 0.0
2014-Jul-27 00:34N 52°25' E 004°51'0 0.0
2014-Jul-26 23:33N 52°25' E 004°51'0 0.0
2014-Jul-26 22:34N 52°25' E 004°51'0 0.0
2014-Jul-26 21:34N 52°25' E 004°51'0 0.0
2014-Jul-26 20:34N 52°25' E 004°51'0 0.0
2014-Jul-26 19:34N 52°25' E 004°51'0 0.0
2014-Jul-26 18:34N 52°25' E 004°51'0 0.0
2014-Jul-26 17:34N 52°25' E 004°51'0 0.1
2014-Jul-26 16:33N 52°25' E 004°51'6 6.3
2014-Jul-26 15:34N 52°21' E 004°59'8 8.2
2014-Jul-26 14:32N 52°12' E 005°00'8 7.8
2014-Jul-26 13:33N 52°05' E 005°05'8 8.2
2014-Jul-26 12:33N 51°60' E 005°14'5 5.2
2014-Jul-26 11:33N 51°57' E 005°22'5 5.0
2014-Jul-26 10:33N 51°54' E 005°27'1010.2
2014-Jul-26 09:33N 51°53' E 005°44'183 7.9
2014-Jul-25 10:18N 49°23' E 008°30'6 8.3
2014-Jul-25 09:33N 49°17' E 008°28'1010.1
2014-Jul-25 08:33N 49°07' E 008°22'4 3.5
2014-Jul-25 07:33N 49°04' E 008°20'0 0.0
2014-Jul-25 06:33N 49°04' E 008°20'0 0.0
2014-Jul-25 05:33N 49°04' E 008°20'0 0.0
2014-Jul-25 04:33N 49°04' E 008°20'0 0.0
2014-Jul-25 03:33N 49°04' E 008°20'0 0.0
2014-Jul-25 02:33N 49°04' E 008°20'0 0.0
2014-Jul-25 01:33N 49°04' E 008°20'0 0.0
2014-Jul-25 00:33N 49°04' E 008°20'0 0.0
2014-Jul-24 23:33N 49°04' E 008°20'0 0.0
2014-Jul-24 22:33N 49°04' E 008°20'0 0.0
2014-Jul-24 21:33N 49°04' E 008°20'0 0.0
2014-Jul-24 20:33N 49°04' E 008°20'0 0.0
2014-Jul-24 19:33N 49°04' E 008°20'0 0.0
2014-Jul-24 18:33N 49°04' E 008°20'0 0.0
2014-Jul-24 17:33N 49°04' E 008°20'0 0.0
2014-Jul-24 16:33N 49°04' E 008°20'0 0.2
2014-Jul-24 15:33N 49°04' E 008°20'0 0.0
2014-Jul-24 14:33N 49°04' E 008°20'0 0.0
2014-Jul-24 13:33N 49°04' E 008°20'0 0.0
2014-Jul-24 12:33N 49°04' E 008°20'0 0.0
2014-Jul-24 11:33N 49°04' E 008°20'0 0.0
2014-Jul-24 10:33N 49°04' E 008°20'0 0.0
2014-Jul-24 09:33N 49°04' E 008°20'0 0.0
2014-Jul-24 08:33N 49°04' E 008°20'0 0.0
2014-Jul-24 07:33N 49°04' E 008°20'0 0.0
2014-Jul-24 06:33N 49°04' E 008°20'0 0.0
2014-Jul-24 05:33N 49°04' E 008°20'0 0.0
2014-Jul-24 04:33N 49°04' E 008°20'0 0.0
2014-Jul-24 03:33N 49°04' E 008°20'0 0.0
2014-Jul-24 02:33N 49°04' E 008°20'0 0.0
2014-Jul-24 01:33N 49°04' E 008°20'0 0.0
2014-Jul-24 00:33N 49°04' E 008°20'0 0.0
2014-Jul-23 23:33N 49°04' E 008°20'0 0.0
2014-Jul-23 22:33N 49°04' E 008°20'0 0.0
2014-Jul-23 21:33N 49°04' E 008°20'0 0.0
2014-Jul-23 20:33N 49°04' E 008°20'0 0.0
2014-Jul-23 19:33N 49°04' E 008°20'0 0.0
2014-Jul-23 18:33N 49°04' E 008°20'0 0.0
2014-Jul-23 17:33N 49°04' E 008°20'0 0.0
2014-Jul-23 16:33N 49°04' E 008°20'0 0.0
2014-Jul-23 15:33N 49°04' E 008°20'0 0.0
2014-Jul-23 14:33N 49°04' E 008°20'0 0.0
2014-Jul-23 13:33N 49°04' E 008°20'0 0.0
2014-Jul-23 12:33N 49°04' E 008°20'0 0.0
2014-Jul-23 11:33N 49°04' E 008°20'0 0.0
2014-Jul-23 10:33N 49°04' E 008°20'0 0.0
2014-Jul-23 09:33N 49°04' E 008°20'0 0.0
2014-Jul-23 08:33N 49°04' E 008°20'0 0.0
2014-Jul-23 07:33N 49°04' E 008°20'0 0.0
2014-Jul-23 06:33N 49°04' E 008°20'0 0.0
2014-Jul-23 05:33N 49°04' E 008°20'0 0.0
2014-Jul-23 04:33N 49°04' E 008°20'0 0.0
2014-Jul-23 03:33N 49°04' E 008°20'0 0.0
2014-Jul-23 02:33N 49°04' E 008°20'0 0.4
2014-Jul-23 01:33N 49°04' E 008°20'1110.9
2014-Jul-23 00:33N 48°55' E 008°10'6 6.3
2014-Jul-22 23:33N 48°50' E 008°07'1 0.6
2014-Jul-22 22:33N 48°49' E 008°06'9 9.5
2014-Jul-22 21:33N 48°42' E 007°56'  
Track history (hours):
 
Tides and Currents Weather Stations Pressure Air Temp Water Temp Dewpoint Dewpoint Depression Visibility Wind Speed Wind Dir Waves Ship Positions

Rp Zug

Last reported at 2014-Aug-01 09:23 UTC. Time now 2014-Aug-01 15:54 UTC.
Position N 51°51' E 005°51'.

Type: Tanker. MMSI: 269057351.

Date/timePositionNaut miles runAvg speedWind from/ knotsBaromVisibWave heightAir tempDewpointWater temp
2014-Aug-01 09:23N 51°51' E 005°51'5 6.6
2014-Aug-01 08:34N 51°53' E 005°43'7 6.6
2014-Aug-01 07:34N 51°54' E 005°33'6 6.0
2014-Aug-01 06:33N 51°50' E 005°24'5 5.0
2014-Aug-01 05:33N 51°49' E 005°17'6 6.3
2014-Aug-01 04:34N 51°49' E 005°06'7 7.1
2014-Aug-01 03:33N 51°50' E 004°55'8 7.5
2014-Aug-01 02:33N 51°49' E 004°43'3 2.8
2014-Aug-01 01:19N 51°47' E 004°38'0 0.0
2014-Aug-01 00:33N 51°47' E 004°38'0 0.0
2014-Jul-31 23:31N 51°47' E 004°38'0 0.0
2014-Jul-31 22:33N 51°47' E 004°38'0 0.0
2014-Jul-31 21:08N 51°47' E 004°38'0 0.0
2014-Jul-31 20:31N 51°47' E 004°38'0 0.0
2014-Jul-31 19:29N 51°47' E 004°38'0 0.0
2014-Jul-31 13:15N 51°47' E 004°38'2 2.3
2014-Jul-31 12:33N 51°48' E 004°36'7 7.0
2014-Jul-31 11:33N 51°50' E 004°25'7 7.5
2014-Jul-31 10:33N 51°53' E 004°14'7 7.0
2014-Jul-31 09:34N 51°57' E 004°05'2 1.8
2014-Jul-31 08:33N 51°58' E 004°02'0 0.0
2014-Jul-31 07:33N 51°58' E 004°02'0 0.0
2014-Jul-31 06:33N 51°58' E 004°02'0 0.0
2014-Jul-31 05:32N 51°58' E 004°02'0 0.0
2014-Jul-31 04:27N 51°58' E 004°02'0 0.0
2014-Jul-31 03:33N 51°58' E 004°02'0 0.0
2014-Jul-31 02:34N 51°58' E 004°02'0 0.0
2014-Jul-31 01:34N 51°58' E 004°02'0 0.0
2014-Jul-31 00:30N 51°58' E 004°02'1 1.4
2014-Jul-30 23:33N 51°58' E 004°04'10 9.6
2014-Jul-30 22:33N 51°52' E 004°17'1111.0
2014-Jul-30 21:33N 51°49' E 004°34'6 5.7
2014-Jul-30 20:33N 51°53' E 004°39'1110.8
2014-Jul-30 19:34N 51°57' E 004°56'8 7.7
2014-Jul-30 18:33N 52°01' E 005°07'3 2.9
2014-Jul-30 17:34N 52°04' E 005°06'9 8.8
2014-Jul-30 16:33N 52°12' E 004°60'9 9.0
2014-Jul-30 15:34N 52°21' E 004°60'8 8.4
2014-Jul-30 14:33N 52°25' E 004°48'2 2.2
2014-Jul-30 13:33N 52°25' E 004°45'0 0.0
2014-Jul-30 12:33N 52°25' E 004°45'0 0.0
2014-Jul-30 11:34N 52°25' E 004°45'0 0.0
2014-Jul-30 10:33N 52°25' E 004°45'0 0.0
2014-Jul-30 09:33N 52°25' E 004°45'0 0.0
2014-Jul-30 08:33N 52°25' E 004°45'0 0.0
2014-Jul-30 07:33N 52°25' E 004°45'0 0.0
2014-Jul-30 06:34N 52°25' E 004°45'0 0.0
2014-Jul-30 05:33N 52°25' E 004°45'0 0.0
2014-Jul-30 04:33N 52°25' E 004°45'0 0.0
2014-Jul-30 03:33N 52°25' E 004°45'0 0.0
2014-Jul-30 02:34N 52°25' E 004°45'0 0.0
2014-Jul-30 01:33N 52°25' E 004°45'0 0.0
2014-Jul-30 00:33N 52°25' E 004°45'0 0.3
2014-Jul-29 23:33N 52°25' E 004°45'0 0.0
2014-Jul-29 22:33N 52°25' E 004°45'0 0.0
2014-Jul-29 21:33N 52°25' E 004°45'0 0.0
2014-Jul-29 20:33N 52°25' E 004°45'0 0.0
2014-Jul-29 19:33N 52°25' E 004°45'0 0.0
2014-Jul-29 18:33N 52°25' E 004°45'0 0.0
2014-Jul-29 17:33N 52°25' E 004°45'0 0.0
2014-Jul-29 16:33N 52°25' E 004°45'0 0.0
2014-Jul-29 15:34N 52°25' E 004°45'0 0.0
2014-Jul-29 14:33N 52°25' E 004°45'0 0.0
2014-Jul-29 13:33N 52°25' E 004°45'0 0.0
2014-Jul-29 12:33N 52°25' E 004°45'0 0.0
2014-Jul-29 11:33N 52°25' E 004°45'0 0.0
2014-Jul-29 10:33N 52°25' E 004°45'0 0.0
2014-Jul-29 09:33N 52°25' E 004°45'0 0.0
2014-Jul-29 08:33N 52°25' E 004°45'0 0.0
2014-Jul-29 07:33N 52°25' E 004°45'1 0.8
2014-Jul-29 06:34N 52°26' E 004°46'1 1.4
2014-Jul-29 05:33N 52°25' E 004°48'0 0.0
2014-Jul-29 04:33N 52°25' E 004°48'0 0.0
2014-Jul-29 03:33N 52°25' E 004°48'0 0.0
2014-Jul-29 02:33N 52°25' E 004°48'0 0.0
2014-Jul-29 01:33N 52°25' E 004°48'0 0.0
2014-Jul-29 00:33N 52°25' E 004°48'0 0.0
2014-Jul-28 23:33N 52°25' E 004°48'0 0.0
2014-Jul-28 22:33N 52°25' E 004°48'0 0.0
2014-Jul-28 21:33N 52°25' E 004°48'0 0.0
2014-Jul-28 20:33N 52°25' E 004°48'0 0.0
2014-Jul-28 19:33N 52°25' E 004°48'0 0.0
2014-Jul-28 18:33N 52°25' E 004°48'1 0.6
2014-Jul-28 17:33N 52°25' E 004°49'6 5.7
2014-Jul-28 16:33N 52°23' E 004°57'8 8.0
2014-Jul-28 15:33N 52°15' E 005°01'8 8.0
2014-Jul-28 14:33N 52°07' E 005°04'6 6.4
2014-Jul-28 13:33N 52°01' E 005°07'6 5.7
2014-Jul-28 12:33N 51°58' E 004°59'7 6.6
2014-Jul-28 11:33N 51°55' E 004°48'7 7.2
2014-Jul-28 10:33N 51°53' E 004°37'8 8.2
2014-Jul-28 09:33N 51°45' E 004°38'4 0.8
2014-Jul-28 04:11N 51°42' E 004°34'0 0.0
2014-Jul-28 03:33N 51°42' E 004°34'0 0.0
2014-Jul-28 02:16N 51°42' E 004°34'0 0.0
2014-Jul-27 21:33N 51°42' E 004°34'2 0.2
2014-Jul-27 14:33N 51°42' E 004°36'6 5.7
2014-Jul-27 13:33N 51°48' E 004°37'6 6.3
2014-Jul-27 12:34N 51°54' E 004°41'1010.4
2014-Jul-27 11:34N 51°58' E 004°57'7 6.7
2014-Jul-27 10:33N 52°01' E 005°07'7 6.6
2014-Jul-27 09:32N 52°07' E 005°04'9 9.0
2014-Jul-27 08:32N 52°16' E 005°01'8 8.0
2014-Jul-27 07:33N 52°23' E 004°54'3 2.6
2014-Jul-27 06:34N 52°25' E 004°51'0 0.0
2014-Jul-27 05:34N 52°25' E 004°51'0 0.0
2014-Jul-27 04:34N 52°25' E 004°51'0 0.0
2014-Jul-27 03:34N 52°25' E 004°51'0 0.0
2014-Jul-27 02:34N 52°25' E 004°51'0 0.0
2014-Jul-27 01:34N 52°25' E 004°51'0 0.0
2014-Jul-27 00:34N 52°25' E 004°51'0 0.0
2014-Jul-26 23:33N 52°25' E 004°51'0 0.0
2014-Jul-26 22:34N 52°25' E 004°51'0 0.0
2014-Jul-26 21:34N 52°25' E 004°51'0 0.0
2014-Jul-26 20:34N 52°25' E 004°51'0 0.0
2014-Jul-26 19:34N 52°25' E 004°51'0 0.0
2014-Jul-26 18:34N 52°25' E 004°51'0 0.0
2014-Jul-26 17:34N 52°25' E 004°51'0 0.1
2014-Jul-26 16:33N 52°25' E 004°51'6 6.3
2014-Jul-26 15:34N 52°21' E 004°59'8 8.2
2014-Jul-26 14:32N 52°12' E 005°00'8 7.8
2014-Jul-26 13:33N 52°05' E 005°05'8 8.2
2014-Jul-26 12:33N 51°60' E 005°14'5 5.2
2014-Jul-26 11:33N 51°57' E 005°22'5 5.0
2014-Jul-26 10:33N 51°54' E 005°27'1010.2
2014-Jul-26 09:33N 51°53' E 005°44'183 7.9
2014-Jul-25 10:18N 49°23' E 008°30'6 8.3
2014-Jul-25 09:33N 49°17' E 008°28'1010.1
2014-Jul-25 08:33N 49°07' E 008°22'4 3.5
2014-Jul-25 07:33N 49°04' E 008°20'0 0.0
2014-Jul-25 06:33N 49°04' E 008°20'0 0.0
2014-Jul-25 05:33N 49°04' E 008°20'0 0.0
2014-Jul-25 04:33N 49°04' E 008°20'0 0.0
2014-Jul-25 03:33N 49°04' E 008°20'0 0.0
2014-Jul-25 02:33N 49°04' E 008°20'0 0.0
2014-Jul-25 01:33N 49°04' E 008°20'0 0.0
2014-Jul-25 00:33N 49°04' E 008°20'0 0.0
2014-Jul-24 23:33N 49°04' E 008°20'0 0.0
2014-Jul-24 22:33N 49°04' E 008°20'0 0.0
2014-Jul-24 21:33N 49°04' E 008°20'0 0.0
2014-Jul-24 20:33N 49°04' E 008°20'0 0.0
2014-Jul-24 19:33N 49°04' E 008°20'0 0.0
2014-Jul-24 18:33N 49°04' E 008°20'0 0.0
2014-Jul-24 17:33N 49°04' E 008°20'0 0.0
2014-Jul-24 16:33N 49°04' E 008°20'0 0.2
2014-Jul-24 15:33N 49°04' E 008°20'0 0.0
2014-Jul-24 14:33N 49°04' E 008°20'0 0.0
2014-Jul-24 13:33N 49°04' E 008°20'0 0.0
2014-Jul-24 12:33N 49°04' E 008°20'0 0.0
2014-Jul-24 11:33N 49°04' E 008°20'0 0.0
2014-Jul-24 10:33N 49°04' E 008°20'0 0.0
2014-Jul-24 09:33N 49°04' E 008°20'0 0.0
2014-Jul-24 08:33N 49°04' E 008°20'0 0.0
2014-Jul-24 07:33N 49°04' E 008°20'0 0.0
2014-Jul-24 06:33N 49°04' E 008°20'0 0.0
2014-Jul-24 05:33N 49°04' E 008°20'0 0.0
2014-Jul-24 04:33N 49°04' E 008°20'0 0.0
2014-Jul-24 03:33N 49°04' E 008°20'0 0.0
2014-Jul-24 02:33N 49°04' E 008°20'0 0.0
2014-Jul-24 01:33N 49°04' E 008°20'0 0.0
2014-Jul-24 00:33N 49°04' E 008°20'0 0.0
2014-Jul-23 23:33N 49°04' E 008°20'0 0.0
2014-Jul-23 22:33N 49°04' E 008°20'0 0.0
2014-Jul-23 21:33N 49°04' E 008°20'0 0.0
2014-Jul-23 20:33N 49°04' E 008°20'0 0.0
2014-Jul-23 19:33N 49°04' E 008°20'0 0.0
2014-Jul-23 18:33N 49°04' E 008°20'0 0.0
2014-Jul-23 17:33N 49°04' E 008°20'0 0.0
2014-Jul-23 16:33N 49°04' E 008°20'0 0.0
2014-Jul-23 15:33N 49°04' E 008°20'0 0.0
2014-Jul-23 14:33N 49°04' E 008°20'0 0.0
2014-Jul-23 13:33N 49°04' E 008°20'0 0.0
2014-Jul-23 12:33N 49°04' E 008°20'0 0.0
2014-Jul-23 11:33N 49°04' E 008°20'0 0.0
2014-Jul-23 10:33N 49°04' E 008°20'0 0.0
2014-Jul-23 09:33N 49°04' E 008°20'0 0.0
2014-Jul-23 08:33N 49°04' E 008°20'0 0.0
2014-Jul-23 07:33N 49°04' E 008°20'0 0.0
2014-Jul-23 06:33N 49°04' E 008°20'0 0.0
2014-Jul-23 05:33N 49°04' E 008°20'0 0.0
2014-Jul-23 04:33N 49°04' E 008°20'0 0.0
2014-Jul-23 03:33N 49°04' E 008°20'0 0.0
2014-Jul-23 02:33N 49°04' E 008°20'0 0.4
2014-Jul-23 01:33N 49°04' E 008°20'1110.9
2014-Jul-23 00:33N 48°55' E 008°10'6 6.3
2014-Jul-22 23:33N 48°50' E 008°07'1 0.6
2014-Jul-22 22:33N 48°49' E 008°06'9 9.5
2014-Jul-22 21:33N 48°42' E 007°56'  

Dump ship's entire track history